Time;durP1;ratioP1;P1;durP2;ratioP2;P2;SDS_P1;SDS_P2;PMS_P1;PMS_P2;Temp;Humidity;BMP_temperature;BMP_pressure;BME280_temperature;BME280_humidity;BME280_pressure;Samples;Min_cycle;Max_cycle;Signal;HPM_P1;HPM_P2
2022/03/02 00:01:38;;;;;;;;;51.00;39.50;;;;;10.02;46.55;101526.00;5057795;28;45386;-61
2022/03/02 00:04:04;;;;;;;;;46.75;41.00;;;;;10.00;46.41;101525.16;5057746;28;45423;-61
2022/03/02 00:06:29;;;;;;;;;52.25;42.50;;;;;10.00;46.71;101524.28;5057725;28;45382;-60
2022/03/02 00:08:55;;;;;;;;;54.25;42.75;;;;;9.98;46.16;101518.19;5057387;28;45422;-59
2022/03/02 00:11:20;;;;;;;;;42.00;38.00;;;;;9.95;46.17;101513.84;5057570;28;45437;-59
2022/03/02 00:13:46;;;;;;;;;43.50;39.00;;;;;9.93;45.96;101511.22;5057923;28;45370;-59
2022/03/02 00:16:12;;;;;;;;;47.50;37.00;;;;;9.90;46.49;101500.78;5057585;28;45613;-60
2022/03/02 00:18:38;;;;;;;;;52.50;42.00;;;;;9.89;46.42;101493.81;5057373;28;45467;-59
2022/03/02 00:21:04;;;;;;;;;41.75;37.75;;;;;9.87;46.28;101490.34;5057564;28;45399;-60
2022/03/02 00:23:29;;;;;;;;;50.75;42.00;;;;;9.85;46.40;101486.00;5057460;28;45354;-60
2022/03/02 00:25:55;;;;;;;;;38.00;35.50;;;;;9.82;46.25;101494.81;5057660;28;45685;-60
2022/03/02 00:28:22;;;;;;;;;40.25;38.00;;;;;9.80;46.56;101493.94;5057445;28;46086;-58
2022/03/02 00:30:47;;;;;;;;;49.25;40.25;;;;;9.78;46.54;101487.88;5057430;28;45441;-60
2022/03/02 00:33:13;;;;;;;;;45.75;39.25;;;;;9.79;46.37;101492.22;5056670;28;45551;-60
2022/03/02 00:35:38;;;;;;;;;47.75;40.75;;;;;9.78;46.23;101493.13;5057601;28;45582;-59
2022/03/02 00:38:06;;;;;;;;;51.75;42.75;;;;;9.78;46.76;101487.00;5056976;28;46206;-59
2022/03/02 00:40:31;;;;;;;;;43.50;38.25;;;;;9.77;46.50;101483.50;5057374;28;45445;-58
2022/03/02 00:42:57;;;;;;;;;45.50;39.00;;;;;9.75;46.59;101480.03;5057440;28;45415;-60
2022/03/02 00:45:22;;;;;;;;;35.75;35.75;;;;;9.70;46.99;101474.88;5056981;28;49320;-58
2022/03/02 00:47:48;;;;;;;;;46.00;40.50;;;;;9.72;46.60;101488.88;5057259;28;45961;-57
2022/03/02 00:50:14;;;;;;;;;47.25;38.50;;;;;9.70;46.54;101481.91;5057005;28;45475;-56
2022/03/02 00:52:40;;;;;;;;;47.75;40.75;;;;;9.69;46.86;101483.63;5057250;28;45357;-58
2022/03/02 00:55:06;;;;;;;;;48.75;41.00;;;;;9.69;47.00;101481.00;5057265;28;45340;-58
2022/03/02 00:57:31;;;;;;;;;46.25;38.50;;;;;9.68;46.68;101476.66;5056981;28;45516;-61
2022/03/02 00:59:57;;;;;;;;;44.50;37.25;;;;;9.69;46.77;101475.75;5057105;28;45444;-60
2022/03/02 01:02:23;;;;;;;;;42.50;36.25;;;;;9.68;46.92;101476.66;5057049;28;45429;-59
2022/03/02 01:04:48;;;;;;;;;53.00;41.50;;;;;9.73;46.35;101481.84;5056541;28;45427;-59
2022/03/02 01:07:13;;;;;;;;;38.75;36.50;;;;;9.72;46.32;101480.09;5057121;28;45413;-58
2022/03/02 01:09:39;;;;;;;;;58.00;43.25;;;;;9.71;46.65;101475.75;5056921;28;45436;-58
2022/03/02 01:12:04;;;;;;;;;45.25;41.00;;;;;9.70;46.30;101479.28;5056998;28;45543;-61
2022/03/02 01:14:30;;;;;;;;;43.25;38.75;;;;;9.70;46.55;101479.28;5056869;28;45467;-59
2022/03/02 01:16:55;;;;;;;;;48.25;39.50;;;;;9.70;46.26;101472.25;5056636;28;45459;-60
2022/03/02 01:19:20;;;;;;;;;53.50;43.75;;;;;9.70;46.54;101464.38;5056750;28;45572;-59
2022/03/02 01:21:46;;;;;;;;;51.25;44.50;;;;;9.70;46.20;101471.41;5056899;28;45783;-58
2022/03/02 01:24:11;;;;;;;;;54.25;43.75;;;;;9.69;46.35;101464.38;5056888;28;45564;-59
2022/03/02 01:26:37;;;;;;;;;50.00;40.00;;;;;9.68;46.58;101470.53;5056620;28;45475;-58
2022/03/02 01:29:04;;;;;;;;;51.50;44.00;;;;;9.70;46.42;101474.03;5056608;28;45380;-58
2022/03/02 01:31:30;;;;;;;;;47.50;42.00;;;;;9.69;46.63;101470.50;5056694;28;45442;-59
2022/03/02 01:33:57;;;;;;;;;45.00;38.25;;;;;9.66;46.08;101469.69;5056363;28;45575;-59
2022/03/02 01:36:23;;;;;;;;;55.50;43.25;;;;;9.68;46.21;101466.16;5056354;28;46265;-59
2022/03/02 01:38:49;;;;;;;;;47.50;39.50;;;;;9.71;46.13;101460.84;5056296;28;45463;-58
2022/03/02 01:41:17;;;;;;;;;52.50;42.25;;;;;9.71;46.11;101455.59;5056354;28;45437;-59
2022/03/02 01:43:43;;;;;;;;;53.00;40.25;;;;;9.71;46.35;101452.97;5056581;28;45363;-58
2022/03/02 01:46:09;;;;;;;;;56.00;46.75;;;;;9.72;46.04;101446.84;5056060;28;46391;-57
2022/03/02 01:48:35;;;;;;;;;51.75;41.25;;;;;9.72;46.45;101448.56;5056222;28;45425;-61
2022/03/02 01:51:01;;;;;;;;;46.00;39.25;;;;;9.70;46.54;101451.25;5055604;28;45382;-60
2022/03/02 01:53:27;;;;;;;;;46.75;40.25;;;;;9.70;46.52;101448.63;5056423;28;45527;-59
2022/03/02 01:55:56;;;;;;;;;54.50;43.00;;;;;9.69;46.49;101441.59;5055923;28;45533;-59
2022/03/02 01:58:23;;;;;;;;;51.50;43.00;;;;;9.70;46.22;101437.25;5055941;28;45518;-58
2022/03/02 02:00:48;;;;;;;;;55.25;45.75;;;;;9.71;46.09;101438.97;5056088;28;45371;-58
2022/03/02 02:03:14;;;;;;;;;45.00;40.25;;;;;9.71;46.41;101436.34;5056124;28;45670;-58
2022/03/02 02:05:39;;;;;;;;;52.50;43.75;;;;;9.70;46.65;101434.63;5055829;28;46168;-60
2022/03/02 02:08:04;;;;;;;;;51.75;42.25;;;;;9.71;46.50;101438.97;5056052;28;45446;-59
2022/03/02 02:10:30;;;;;;;;;54.25;44.25;;;;;9.70;46.34;101435.47;5056040;28;45557;-59
2022/03/02 02:12:55;;;;;;;;;53.25;43.25;;;;;9.76;46.37;101428.38;5056237;28;45685;-59
2022/03/02 02:15:21;;;;;;;;;52.00;44.00;;;;;9.75;46.23;101424.88;5055735;28;45415;-59
2022/03/02 02:17:47;;;;;;;;;44.00;40.75;;;;;9.73;46.04;101422.28;5055857;28;45683;-58
2022/03/02 02:20:13;;;;;;;;;48.75;42.50;;;;;9.73;46.29;101422.28;5055830;28;45512;-60
2022/03/02 02:22:43;;;;;;;;;42.25;39.00;;;;;9.70;46.37;101410.97;5055902;28;45494;-59
2022/03/02 02:25:10;;;;;;;;;56.25;44.75;;;;;9.71;45.92;101412.69;5055768;28;46131;-59
2022/03/02 02:27:36;;;;;;;;;46.50;39.75;;;;;9.68;46.36;101407.50;5055762;28;45501;-59
2022/03/02 02:30:03;;;;;;;;;43.50;40.75;;;;;9.68;46.68;101411.00;5055713;28;45517;-59
2022/03/02 02:32:28;;;;;;;;;46.75;41.25;;;;;9.67;46.24;101404.03;5055750;28;45374;-59
2022/03/02 02:34:55;;;;;;;;;55.50;46.00;;;;;9.63;46.18;101402.34;5055335;28;46091;-58
2022/03/02 02:37:21;;;;;;;;;53.75;43.00;;;;;9.61;46.51;101398.00;5055371;28;45457;-60
2022/03/02 02:40:06;;;;;;;;;52.25;43.50;;;;;9.63;46.38;101390.97;5055853;28;45444;-59
2022/03/02 02:42:31;;;;;;;;;55.50;42.25;;;;;9.63;46.62;101390.97;5055823;28;45509;-58
2022/03/02 02:44:57;;;;;;;;;45.25;39.00;;;;;9.62;46.43;101378.75;5055324;28;50703;-59
2022/03/02 02:47:22;;;;;;;;;50.25;41.75;;;;;9.58;46.65;101374.44;5055318;28;45342;-59
2022/03/02 02:49:49;;;;;;;;;48.25;43.00;;;;;9.58;46.75;101374.44;5055729;28;45380;-59
2022/03/02 02:52:14;;;;;;;;;44.75;38.00;;;;;9.59;46.74;101370.91;5054116;28;45633;-60
2022/03/02 02:54:41;;;;;;;;;52.75;43.50;;;;;9.59;47.10;101365.63;5055016;28;45993;-58
2022/03/02 02:57:07;;;;;;;;;52.25;42.25;;;;;9.63;46.79;101364.69;5055318;28;45390;-59
2022/03/02 02:59:32;;;;;;;;;46.25;41.25;;;;;9.58;46.75;101358.66;5055420;28;45454;-60
2022/03/02 03:01:58;;;;;;;;;52.75;44.00;;;;;9.61;46.97;101356.84;5055345;28;45564;-58
2022/03/02 03:04:23;;;;;;;;;45.00;40.25;;;;;9.62;46.57;101361.22;5055058;28;46061;-59
2022/03/02 03:06:48;;;;;;;;;53.75;43.75;;;;;9.61;46.78;101355.97;5055265;28;45501;-59
2022/03/02 03:09:16;;;;;;;;;50.75;43.25;;;;;9.64;47.01;101350.66;5055352;28;45439;-57
2022/03/02 03:11:42;;;;;;;;;54.25;43.75;;;;;9.62;46.93;101352.47;5055348;28;45548;-59
2022/03/02 03:14:12;;;;;;;;;45.50;36.25;;;;;9.64;46.73;101342.78;5055025;28;46205;-59
2022/03/02 03:16:39;;;;;;;;;49.25;41.75;;;;;9.64;47.01;101348.03;5055203;28;45455;-58
2022/03/02 03:19:05;;;;;;;;;49.50;39.50;;;;;9.63;46.96;101348.94;5055175;28;45421;-58
2022/03/02 03:21:30;;;;;;;;;56.25;44.75;;;;;9.62;46.69;101336.72;5055067;28;45417;-58
2022/03/02 03:23:55;;;;;;;;;56.00;44.00;;;;;9.65;47.27;101345.41;5055142;28;45445;-59
2022/03/02 03:26:21;;;;;;;;;56.50;46.50;;;;;9.65;46.59;101336.66;5055116;28;45494;-58
2022/03/02 03:28:47;;;;;;;;;54.25;45.25;;;;;9.63;46.70;101339.28;5055079;28;45754;-60
2022/03/02 03:31:12;;;;;;;;;53.25;45.00;;;;;9.63;46.82;101348.94;5053761;28;45670;-60
2022/03/02 03:33:37;;;;;;;;;47.00;40.75;;;;;9.62;46.54;101348.09;5054963;28;45499;-59
2022/03/02 03:36:03;;;;;;;;;54.00;43.00;;;;;9.61;46.83;101345.47;5054945;28;45457;-59
2022/03/02 03:38:29;;;;;;;;;48.00;42.75;;;;;9.60;46.77;101349.88;5054992;28;45398;-60
2022/03/02 03:40:54;;;;;;;;;45.50;40.00;;;;;9.59;46.78;101342.00;5054741;28;45609;-60
2022/03/02 03:43:20;;;;;;;;;46.25;40.25;;;;;9.57;46.86;101343.81;5054791;28;45477;-59
2022/03/02 03:45:45;;;;;;;;;57.50;45.75;;;;;9.60;46.87;101333.25;5054718;28;45446;-58
2022/03/02 03:48:11;;;;;;;;;46.25;39.50;;;;;9.59;47.07;101342.91;5054678;28;45414;-59
2022/03/02 03:50:36;;;;;;;;;49.50;42.00;;;;;9.57;47.04;101326.28;5054963;28;45441;-60
2022/03/02 03:53:02;;;;;;;;;48.00;40.75;;;;;9.55;47.21;101322.81;5054496;28;46409;-57
2022/03/02 03:55:27;;;;;;;;;54.50;45.75;;;;;9.59;47.00;101326.25;5054435;28;45445;-60
2022/03/02 03:57:52;;;;;;;;;46.25;40.00;;;;;9.63;47.06;101330.56;5054671;28;45488;-57
2022/03/02 04:00:19;;;;;;;;;53.00;44.00;;;;;9.62;47.28;101324.44;5054670;28;45597;-58
2022/03/02 04:02:45;;;;;;;;;48.25;40.25;;;;;9.61;46.82;101325.31;5054501;28;45516;-58
2022/03/02 04:05:11;;;;;;;;;46.50;40.50;;;;;9.59;47.32;101323.63;5054451;28;45519;-59
2022/03/02 04:07:38;;;;;;;;;54.25;45.75;;;;;9.58;46.92;101321.91;5054611;28;45459;-59
2022/03/02 04:10:08;;;;;;;;;50.25;42.75;;;;;9.56;46.81;101326.31;5053091;28;45622;-59
2022/03/02 04:12:34;;;;;;;;;37.00;33.75;;;;;9.54;46.58;101322.84;5055077;28;46080;-59
2022/03/02 04:15:00;;;;;;;;;56.25;47.25;;;;;9.51;46.55;101326.44;5057794;28;45529;-59
2022/03/02 04:17:26;;;;;;;;;54.50;45.75;;;;;9.51;46.67;101324.66;5057774;28;45549;-61
2022/03/02 04:19:51;;;;;;;;;50.50;41.50;;;;;9.49;46.38;101315.94;5057918;28;45375;-60
2022/03/02 04:22:16;;;;;;;;;44.75;40.75;;;;;9.46;46.58;101323.88;5057609;28;45378;-58
2022/03/02 04:24:42;;;;;;;;;53.25;43.50;;;;;9.43;46.75;101320.41;5057614;28;45383;-59
2022/03/02 04:27:08;;;;;;;;;42.25;39.75;;;;;9.35;46.31;101315.34;5057933;28;45351;-59
2022/03/02 04:29:33;;;;;;;;;48.00;40.50;;;;;9.36;47.01;101310.94;5056455;28;45344;-58
2022/03/02 04:31:59;;;;;;;;;46.00;41.50;;;;;9.31;46.71;101308.41;5057570;28;46283;-60
2022/03/02 04:34:24;;;;;;;;;53.00;42.00;;;;;9.31;46.39;101307.53;5057822;28;45470;-59
2022/03/02 04:36:50;;;;;;;;;46.50;42.50;;;;;9.29;45.95;101302.31;5057553;28;45418;-58
2022/03/02 04:39:15;;;;;;;;;48.50;41.50;;;;;9.25;46.04;101292.78;5057573;28;45405;-59
2022/03/02 04:41:41;;;;;;;;;47.25;40.00;;;;;9.25;46.40;101304.13;5057469;28;46457;-58
2022/03/02 04:44:06;;;;;;;;;49.25;40.50;;;;;9.23;46.28;101297.19;5057418;28;45491;-59
2022/03/02 04:46:32;;;;;;;;;50.50;43.00;;;;;9.23;46.50;101290.16;5057733;28;45674;-59
2022/03/02 04:48:57;;;;;;;;;45.25;39.75;;;;;9.25;47.09;101295.41;5057366;28;46002;-59
2022/03/02 04:51:22;;;;;;;;;44.75;39.50;;;;;9.23;46.74;101289.31;5057188;28;45493;-58
2022/03/02 04:53:50;;;;;;;;;53.00;43.75;;;;;9.25;46.98;101290.16;5057272;28;45496;-59
2022/03/02 04:56:16;;;;;;;;;43.25;40.00;;;;;9.26;46.47;101287.47;5057409;28;45434;-60
2022/03/02 04:58:41;;;;;;;;;52.00;41.75;;;;;9.26;46.95;101294.50;5056953;28;45497;-57
2022/03/02 05:01:07;;;;;;;;;44.00;40.00;;;;;9.25;46.40;101291.00;5057136;28;45453;-59
2022/03/02 05:03:32;;;;;;;;;48.00;40.50;;;;;9.25;46.46;101292.78;5056907;28;45402;-58
2022/03/02 05:05:57;;;;;;;;;58.50;46.25;;;;;9.23;46.50;101289.31;5056895;28;45364;-58
2022/03/02 05:08:23;;;;;;;;;48.50;40.75;;;;;9.24;46.76;101285.78;5057003;28;45505;-58
2022/03/02 05:10:48;;;;;;;;;52.25;43.00;;;;;9.23;47.01;101284.06;5055237;28;46077;-59
2022/03/02 05:13:13;;;;;;;;;52.25;44.75;;;;;9.21;46.55;101281.44;5057002;28;45500;-59
2022/03/02 05:15:39;;;;;;;;;51.00;41.75;;;;;9.15;46.87;101273.69;5056812;28;45387;-59
2022/03/02 05:18:04;;;;;;;;;55.75;42.25;;;;;9.06;46.99;101274.75;5056829;28;45468;-60
2022/03/02 05:20:30;;;;;;;;;47.25;42.25;;;;;9.09;46.61;101275.59;5056632;28;45918;-59
2022/03/02 05:22:55;;;;;;;;;50.50;41.50;;;;;9.09;46.89;101283.47;5056820;28;45375;-58
2022/03/02 05:25:24;;;;;;;;;43.00;39.50;;;;;9.06;46.72;101276.50;5055566;28;45393;-58
2022/03/02 05:27:50;;;;;;;;;46.75;39.75;;;;;9.04;46.79;101273.03;5056612;28;45511;-60
2022/03/02 05:30:16;;;;;;;;;54.25;42.75;;;;;9.03;46.44;101279.19;5056245;28;45469;-60
2022/03/02 05:32:41;;;;;;;;;53.00;43.75;;;;;9.02;46.58;101273.06;5056532;28;45504;-58
2022/03/02 05:35:08;;;;;;;;;54.00;42.75;;;;;9.01;46.88;101271.34;5056529;28;45482;-59
2022/03/02 05:37:34;;;;;;;;;55.75;41.50;;;;;9.02;46.88;101259.94;5056331;28;45377;-58
2022/03/02 05:40:00;;;;;;;;;46.75;39.00;;;;;9.03;46.68;101260.81;5056310;28;45438;-59
2022/03/02 05:42:26;;;;;;;;;45.00;40.00;;;;;8.99;46.79;101257.38;5056427;28;45490;-58
2022/03/02 05:44:51;;;;;;;;;54.00;44.00;;;;;8.99;46.98;101257.38;5056496;28;45527;-59
2022/03/02 05:47:16;;;;;;;;;54.00;43.75;;;;;8.96;46.97;101257.44;5056589;28;45687;-61
2022/03/02 05:49:42;;;;;;;;;46.00;40.25;;;;;8.97;47.51;101256.56;5056242;28;45428;-59
2022/03/02 05:52:07;;;;;;;;;50.25;42.00;;;;;8.97;47.29;101264.44;5055133;28;45454;-58
2022/03/02 05:54:32;;;;;;;;;46.50;40.25;;;;;8.98;47.50;101271.41;5056532;28;45439;-59
2022/03/02 05:56:57;;;;;;;;;53.00;45.00;;;;;8.96;46.99;101264.44;5056383;28;45684;-62
2022/03/02 05:59:23;;;;;;;;;50.75;43.00;;;;;8.91;47.25;101261.91;5054969;28;46346;-59
2022/03/02 06:01:49;;;;;;;;;50.00;43.00;;;;;8.91;47.20;101259.28;5056101;28;45473;-60
2022/03/02 06:04:14;;;;;;;;;51.25;41.00;;;;;8.95;47.43;101265.34;5056097;28;45501;-60
2022/03/02 06:06:41;;;;;;;;;56.50;44.50;;;;;8.91;47.34;101261.91;5056187;28;45581;-59
2022/03/02 06:09:09;;;;;;;;;57.50;46.00;;;;;8.89;47.57;101261.03;5054418;28;45626;-60
2022/03/02 06:11:36;;;;;;;;;47.75;42.00;;;;;8.84;47.15;101258.53;5055406;28;45360;-60
2022/03/02 06:14:02;;;;;;;;;49.75;43.00;;;;;8.90;47.38;101264.56;5054520;28;45339;-61
2022/03/02 06:16:28;;;;;;;;;47.50;40.25;;;;;8.86;47.63;101266.34;5056088;28;45461;-60
2022/03/02 06:18:54;;;;;;;;;55.25;43.50;;;;;8.83;47.96;101261.16;5055734;28;46023;-59
2022/03/02 06:21:27;;;;;;;;;47.75;39.25;;;;;8.80;47.73;101263.84;5055713;28;45485;-58
2022/03/02 06:23:53;;;;;;;;;50.00;42.00;;;;;8.78;47.56;101258.63;5055751;28;45553;-60
2022/03/02 06:26:19;;;;;;;;;49.25;42.75;;;;;8.75;47.84;101256.03;5055827;27;45597;-60
2022/03/02 06:28:45;;;;;;;;;52.50;43.00;;;;;8.76;47.94;101256.94;5055581;28;45476;-59
2022/03/02 06:31:13;;;;;;;;;44.00;40.25;;;;;8.75;48.04;101253.44;5055741;28;45477;-60
2022/03/02 06:33:39;;;;;;;;;51.00;43.00;;;;;8.76;47.49;101254.31;5055658;28;45482;-60
2022/03/02 06:36:05;;;;;;;;;48.75;42.00;;;;;8.73;48.11;101254.34;5055329;28;45633;-58
2022/03/02 06:38:30;;;;;;;;;44.25;38.50;;;;;8.73;48.16;101249.09;5055355;28;45391;-59
2022/03/02 06:41:22;;;;;;;;;53.00;42.50;;;;;8.67;48.26;101247.44;5055661;28;45440;-60
2022/03/02 06:44:16;;;;;;;;;48.25;41.00;;;;;8.68;48.61;101257.06;5055816;28;45366;-60
2022/03/02 06:46:57;;;;;;;;;57.00;44.75;;;;;8.69;47.73;101257.94;5049725;28;45636;-59
2022/03/02 06:49:22;;;;;;;;;52.75;40.25;;;;;8.68;47.55;101271.91;5055452;28;46357;-60
2022/03/02 06:51:50;;;;;;;;;38.75;33.50;;;;;8.66;48.02;101271.94;5055208;28;45397;-60
2022/03/02 06:54:22;;;;;;;;;50.25;41.50;;;;;8.66;48.31;101261.47;5055360;28;45517;-58
2022/03/02 06:56:51;;;;;;;;;47.50;41.50;;;;;8.67;48.39;101275.44;5053888;28;45454;-59
2022/03/02 06:59:29;;;;;;;;;49.75;41.25;;;;;8.64;48.20;101268.47;5055283;28;45479;-60
2022/03/02 07:02:00;;;;;;;;;50.50;43.25;;;;;8.63;48.14;101262.38;5053951;28;45724;-60
2022/03/02 07:04:27;;;;;;;;;52.25;42.75;;;;;8.65;48.66;101269.34;5055551;28;45429;-60
2022/03/02 07:06:53;;;;;;;;;53.00;43.50;;;;;8.65;48.49;101269.34;5055253;28;45348;-60
2022/03/02 07:09:20;;;;;;;;;48.25;41.50;;;;;8.63;48.44;101275.50;5055156;28;45482;-60
2022/03/02 07:11:47;;;;;;;;;47.00;42.00;;;;;8.62;48.69;101271.16;5054953;28;45599;-59
2022/03/02 07:14:15;;;;;;;;;55.25;46.00;;;;;8.63;47.98;101272.00;5055243;28;45683;-60
2022/03/02 07:16:42;;;;;;;;;46.75;41.50;;;;;8.63;47.98;101274.63;5053702;28;45622;-59
2022/03/02 07:19:07;;;;;;;;;50.25;44.25;;;;;8.63;48.11;101282.50;5055137;28;46400;-59
2022/03/02 07:21:34;;;;;;;;;50.00;43.25;;;;;8.68;48.00;101279.78;5054965;28;45428;-60
2022/03/02 07:24:11;;;;;;;;;53.25;41.75;;;;;8.67;48.36;101286.78;5055085;28;45398;-59
2022/03/02 07:26:36;;;;;;;;;48.75;42.75;;;;;8.68;47.94;101285.03;5055035;28;45364;-60
2022/03/02 07:29:02;;;;;;;;;48.00;42.25;;;;;8.70;47.55;101288.50;5054877;28;45415;-59
2022/03/02 07:31:28;;;;;;;;;50.50;42.00;;;;;8.72;48.33;101277.09;5054998;28;45636;-59
2022/03/02 07:33:58;;;;;;;;;47.25;43.00;;;;;8.78;48.19;101282.22;5055233;28;45505;-60
2022/03/02 07:36:24;;;;;;;;;42.00;39.25;;;;;8.82;48.21;101276.03;5054913;28;45525;-60
2022/03/02 07:38:51;;;;;;;;;56.25;45.25;;;;;8.87;48.11;101282.97;5054652;28;46335;-59
2022/03/02 07:41:17;;;;;;;;;46.75;42.50;;;;;8.84;48.18;101282.13;5054695;28;45408;-58
2022/03/02 07:43:42;;;;;;;;;52.00;44.00;;;;;8.81;47.86;101281.31;5054920;28;45517;-59
2022/03/02 07:46:09;;;;;;;;;50.00;42.25;;;;;8.79;48.38;101281.34;5055094;28;45482;-59
2022/03/02 07:48:36;;;;;;;;;48.50;42.75;;;;;8.86;48.48;101282.09;5056608;28;45472;-60
2022/03/02 07:51:05;;;;;;;;;54.25;43.75;;;;;8.88;47.92;101269.81;5058363;28;45354;-59
2022/03/02 07:53:37;;;;;;;;;54.75;43.50;;;;;8.92;48.16;101270.63;5058126;28;45497;-60
2022/03/02 07:56:04;;;;;;;;;45.50;41.00;;;;;8.91;48.13;101258.41;5056969;28;45409;-60
2022/03/02 07:58:29;;;;;;;;;50.50;39.75;;;;;8.96;48.05;101267.94;5058016;28;46019;-58
2022/03/02 08:00:55;;;;;;;;;50.75;40.50;;;;;9.01;48.11;101270.47;5058111;28;45410;-58
2022/03/02 08:03:27;;;;;;;;;51.00;40.25;;;;;9.03;47.97;101269.56;5058161;28;45410;-61
2022/03/02 08:05:57;;;;;;;;;44.75;39.75;;;;;9.05;47.89;101265.16;5058109;28;45438;-61
2022/03/02 08:08:24;;;;;;;;;53.00;41.75;;;;;9.10;47.66;101265.03;5057595;28;46868;-60
2022/03/02 08:10:51;;;;;;;;;46.75;42.50;;;;;9.13;47.84;101267.59;5057599;28;45544;-59
2022/03/02 08:13:18;;;;;;;;;48.50;41.50;;;;;9.16;47.39;101270.22;5057949;28;45434;-61
2022/03/02 08:15:44;;;;;;;;;47.50;42.50;;;;;9.17;47.69;101263.19;5057872;28;45387;-60
2022/03/02 08:18:10;;;;;;;;;47.00;41.25;;;;;9.16;47.24;101261.44;5057584;28;45388;-60
2022/03/02 08:20:44;;;;;;;;;36.75;30.50;;;;;9.17;47.10;101260.56;5057745;28;45319;-60
2022/03/02 08:23:10;;;;;;;;;49.25;41.00;;;;;9.17;47.07;101264.06;5056518;28;45485;-60
2022/03/02 08:25:36;;;;;;;;;47.00;41.75;;;;;9.18;46.84;101265.78;5057720;28;45394;-60
2022/03/02 08:28:09;;;;;;;;;55.75;44.25;;;;;9.21;46.91;101262.22;5057447;28;45484;-59
2022/03/02 08:30:36;;;;;;;;;54.25;43.50;;;;;9.25;46.85;101259.53;5056452;28;45504;-60
2022/03/02 08:33:03;;;;;;;;;48.25;42.00;;;;;9.27;47.23;101256.88;5057566;28;45391;-59
2022/03/02 08:35:35;;;;;;;;;48.00;41.75;;;;;9.33;46.52;101261.13;5057497;28;45486;-60
2022/03/02 08:38:01;;;;;;;;;50.50;43.25;;;;;9.37;46.74;101268.91;5057434;28;46030;-60
2022/03/02 08:40:28;;;;;;;;;47.00;40.00;;;;;9.40;46.83;101266.25;5057566;28;45482;-61
2022/03/02 08:42:55;;;;;;;;;50.25;41.25;;;;;9.48;46.27;101277.47;5057475;28;45592;-60
2022/03/02 08:45:21;;;;;;;;;55.00;44.25;;;;;9.50;45.66;101269.53;5057398;28;45556;-61
2022/03/02 08:47:47;;;;;;;;;46.00;39.75;;;;;9.52;45.43;101276.47;5057043;28;46479;-60
2022/03/02 08:50:12;;;;;;;;;50.25;41.50;;;;;9.54;45.43;101265.06;5057149;28;45379;-59
2022/03/02 08:52:38;;;;;;;;;84.25;68.25;;;;;9.56;45.61;101260.66;5057427;28;45526;-60
2022/03/02 08:55:06;;;;;;;;;52.25;42.75;;;;;9.60;45.39;101262.34;5057402;28;45367;-60
2022/03/02 08:57:34;;;;;;;;;41.00;38.25;;;;;9.63;45.42;101276.25;5056525;28;45394;-60
2022/03/02 08:59:59;;;;;;;;;45.25;39.00;;;;;9.68;45.39;101268.31;5056830;28;45378;-60
2022/03/02 09:02:28;;;;;;;;;42.75;37.75;;;;;9.67;45.18;101272.69;5057137;28;45473;-60
2022/03/02 09:04:58;;;;;;;;;50.50;43.00;;;;;9.66;45.24;101264.84;5057371;28;45371;-60
2022/03/02 09:07:23;;;;;;;;;49.75;42.50;;;;;9.62;45.62;101255.31;5057114;28;46236;-60
2022/03/02 09:09:49;;;;;;;;;49.75;40.00;;;;;9.69;45.43;101267.38;5056810;28;45420;-60
2022/03/02 09:12:15;;;;;;;;;45.00;40.75;;;;;9.68;45.35;101263.91;5057105;28;45469;-59
2022/03/02 09:14:42;;;;;;;;;50.25;42.50;;;;;9.73;45.39;101261.19;5057103;28;45406;-58
2022/03/02 09:17:08;;;;;;;;;47.25;41.75;;;;;9.73;45.20;101269.94;5056903;28;45450;-59
2022/03/02 09:19:33;;;;;;;;;44.00;40.00;;;;;9.72;45.38;101252.47;5056610;28;45411;-60
2022/03/02 09:21:59;;;;;;;;;57.00;49.00;;;;;9.76;45.07;101263.75;5056806;28;45461;-59
2022/03/02 09:24:29;;;;;;;;;47.00;41.25;;;;;9.75;45.09;101256.75;5056995;28;45421;-60
2022/03/02 09:26:59;;;;;;;;;51.00;40.50;;;;;9.77;44.81;101252.34;5056901;28;46225;-59
2022/03/02 09:29:30;;;;;;;;;43.00;36.50;;;;;9.71;44.97;101249.84;5056614;28;45447;-59
2022/03/02 09:31:57;;;;;;;;;44.75;40.25;;;;;9.67;44.57;101256.03;5056351;28;45417;-60
2022/03/02 09:34:29;;;;;;;;;44.75;39.00;;;;;9.63;45.29;101251.78;5056718;28;45323;-59
2022/03/02 09:36:56;;;;;;;;;48.50;40.75;;;;;9.66;44.95;101254.34;5056503;28;46119;-59
2022/03/02 09:39:23;;;;;;;;;51.00;41.25;;;;;9.71;44.83;101250.72;5056347;28;45480;-60
2022/03/02 09:42:03;;;;;;;;;49.00;40.75;;;;;9.77;45.08;101249.72;5056645;28;45442;-59
2022/03/02 09:44:43;;;;;;;;;56.25;45.75;;;;;9.76;45.00;101249.75;5056551;28;45403;-60
2022/03/02 09:47:16;;;;;;;;;54.75;44.00;;;;;9.76;44.46;101248.00;5056347;28;46100;-60
2022/03/02 09:49:56;;;;;;;;;45.00;38.25;;;;;9.78;44.71;101242.69;5056592;28;45460;-60
2022/03/02 09:52:23;;;;;;;;;43.25;40.00;;;;;9.84;44.62;101245.19;5056597;28;45293;-60
2022/03/02 09:54:57;;;;;;;;;49.25;42.75;;;;;9.86;44.75;101240.75;5056270;28;45457;-60
2022/03/02 09:57:23;;;;;;;;;42.00;38.50;;;;;9.90;44.97;101245.06;5056169;28;46105;-59
2022/03/02 09:59:57;;;;;;;;;41.50;36.00;;;;;9.92;44.63;101249.38;5054796;28;45386;-61
2022/03/02 10:02:36;;;;;;;;;43.00;38.75;;;;;9.93;44.12;101244.97;5056068;28;45398;-59
2022/03/02 10:05:08;;;;;;;;;48.75;40.75;;;;;9.95;44.17;101236.16;5056063;28;45664;-60
2022/03/02 10:07:36;;;;;;;;;39.75;35.50;;;;;10.01;44.37;101242.19;5055727;28;47010;-59
2022/03/02 10:10:17;;;;;;;;;42.00;37.25;;;;;10.06;44.27;101243.81;5055092;28;45441;-60
2022/03/02 10:12:43;;;;;;;;;46.25;39.75;;;;;10.15;44.05;101242.72;5056053;28;45405;-60
2022/03/02 10:15:13;;;;;;;;;38.75;36.25;;;;;10.21;44.50;101236.47;5056037;28;45623;-60
2022/03/02 10:17:40;;;;;;;;;42.50;38.50;;;;;10.28;43.92;101238.94;5055792;28;45504;-58
2022/03/02 10:20:11;;;;;;;;;41.50;38.00;;;;;10.40;43.88;101240.44;5055709;28;45466;-59
2022/03/02 10:22:39;;;;;;;;;48.75;39.00;;;;;10.48;43.57;101241.09;5055785;28;45375;-59
2022/03/02 10:25:15;;;;;;;;;42.00;39.00;;;;;10.48;43.40;101224.47;5055799;28;45393;-59
2022/03/02 10:28:06;;;;;;;;;45.75;37.00;;;;;10.53;42.97;101233.09;5055156;28;46094;-58
2022/03/02 10:30:40;;;;;;;;;47.25;39.25;;;;;10.57;43.41;101226.84;5054301;28;45575;-60
2022/03/02 10:33:17;;;;;;;;;45.25;39.25;;;;;10.63;43.31;101221.44;5055887;28;45477;-59
2022/03/02 10:36:00;;;;;;;;;47.25;39.50;;;;;10.68;43.38;101221.31;5055884;28;45491;-60
2022/03/02 10:38:46;;;;;;;;;70.75;55.25;;;;;10.75;42.82;101210.59;5053828;28;47300;-59
2022/03/02 10:41:12;;;;;;;;;73.25;57.50;;;;;10.82;42.91;101224.44;5055350;28;45523;-60
2022/03/02 10:44:02;;;;;;;;;50.75;43.00;;;;;10.83;42.54;101223.56;5055196;28;45478;-60
2022/03/02 10:46:28;;;;;;;;;47.00;38.50;;;;;10.84;43.21;101210.34;5055454;28;45587;-60
2022/03/02 10:49:14;;;;;;;;;50.00;41.50;;;;;10.88;43.05;101210.25;5055253;28;45541;-59
2022/03/02 10:51:39;;;;;;;;;46.00;39.00;;;;;10.84;43.14;101202.44;5055390;28;45412;-60
2022/03/02 10:54:07;;;;;;;;;54.75;42.00;;;;;10.86;42.50;101202.44;5055323;28;45424;-60
2022/03/02 10:56:38;;;;;;;;;44.75;41.00;;;;;10.89;43.01;101199.72;5055470;28;45429;-59
2022/03/02 10:59:07;;;;;;;;;52.00;42.25;;;;;10.92;42.36;101199.63;5055085;28;45566;-59
2022/03/02 11:01:37;;;;;;;;;53.00;40.25;;;;;10.94;42.86;101191.69;5055022;28;45422;-57
2022/03/02 11:04:05;;;;;;;;;53.50;41.75;;;;;10.98;42.33;101194.19;5055171;28;45362;-59
2022/03/02 11:06:32;;;;;;;;;50.00;41.00;;;;;11.05;42.29;101189.63;5055125;28;45496;-60
2022/03/02 11:09:00;;;;;;;;;44.00;39.75;;;;;11.11;41.56;101183.31;5055031;28;46243;-60
2022/03/02 11:11:26;;;;;;;;;50.75;40.50;;;;;11.10;42.25;101181.63;5054765;28;45441;-58
2022/03/02 11:13:52;;;;;;;;;52.75;41.50;;;;;11.11;41.76;101189.44;5055090;28;45490;-59
2022/03/02 11:16:21;;;;;;;;;49.00;40.75;;;;;11.09;41.56;101180.72;5054941;28;45545;-61
2022/03/02 11:18:49;;;;;;;;;46.75;41.00;;;;;11.13;41.92;101177.13;5054531;28;45477;-59